createdAt,value
2018-03-18T00:01:29.859Z,-2.60
2018-03-18T00:03:55.916Z,-2.61
2018-03-18T00:06:21.998Z,-2.68
2018-03-18T00:08:48.025Z,-2.71
2018-03-18T00:11:14.108Z,-2.73
2018-03-18T00:13:40.179Z,-2.74
2018-03-18T00:16:06.185Z,-2.75
2018-03-18T00:18:32.250Z,-2.73
2018-03-18T00:20:58.303Z,-2.74
2018-03-18T00:23:24.357Z,-2.81
2018-03-18T00:25:50.435Z,-2.81
2018-03-18T00:28:16.558Z,-2.83
2018-03-18T00:30:42.751Z,-2.84
2018-03-18T00:33:08.812Z,-2.88
2018-03-18T00:35:34.872Z,-2.83
2018-03-18T00:38:00.921Z,-2.86
2018-03-18T00:40:26.962Z,-2.88
2018-03-18T00:42:53.024Z,-2.90
2018-03-18T00:45:19.585Z,-2.93
2018-03-18T00:47:45.600Z,-2.92
2018-03-18T00:50:11.611Z,-2.92
2018-03-18T00:52:37.713Z,-2.94
2018-03-18T00:55:03.771Z,-3.01
2018-03-18T00:57:29.843Z,-2.95
2018-03-18T00:59:55.899Z,-3.00
2018-03-18T01:02:21.988Z,-3.03
2018-03-18T01:04:48.028Z,-3.06
2018-03-18T01:07:14.090Z,-3.07
2018-03-18T01:09:40.191Z,-3.07
2018-03-18T01:12:06.323Z,-3.11
2018-03-18T01:14:32.391Z,-3.12
2018-03-18T01:16:58.445Z,-3.15
2018-03-18T01:19:24.538Z,-3.15
2018-03-18T01:21:50.606Z,-3.11
2018-03-18T01:27:09.787Z,-3.18
2018-03-18T01:29:35.895Z,-3.20
2018-03-18T01:32:01.967Z,-3.12
2018-03-18T01:34:28.030Z,-3.14
2018-03-18T01:36:54.067Z,-3.19
2018-03-18T01:39:20.127Z,-3.20
2018-03-18T01:41:46.199Z,-3.26
2018-03-18T01:44:12.254Z,-3.28
2018-03-18T01:46:38.326Z,-3.29
2018-03-18T01:49:04.356Z,-3.38
2018-03-18T01:51:30.435Z,-3.30
2018-03-18T01:53:56.454Z,-3.36
2018-03-18T01:56:22.881Z,-3.31
2018-03-18T01:58:48.934Z,-3.35
2018-03-18T02:01:15.007Z,-3.32
2018-03-18T02:03:41.227Z,-3.35
2018-03-18T02:06:07.455Z,-3.33
2018-03-18T02:08:33.533Z,-3.32
2018-03-18T02:10:59.573Z,-3.35
2018-03-18T02:13:25.634Z,-3.35
2018-03-18T02:15:51.784Z,-3.32
2018-03-18T02:18:17.839Z,-3.36
2018-03-18T02:20:43.862Z,-3.31
2018-03-18T02:23:09.913Z,-3.36
2018-03-18T02:25:35.986Z,-3.38
2018-03-18T02:28:02.037Z,-3.29
2018-03-18T02:30:28.110Z,-3.28
2018-03-18T02:32:54.209Z,-3.27
2018-03-18T02:35:20.234Z,-3.32
2018-03-18T02:37:46.269Z,-3.32
2018-03-18T02:40:12.558Z,-3.24
2018-03-18T02:42:38.607Z,-3.35
2018-03-18T02:45:04.638Z,-3.28
2018-03-18T02:47:30.697Z,-3.35
2018-03-18T02:49:56.807Z,-3.36
2018-03-18T02:52:23.044Z,-3.36
2018-03-18T02:54:49.084Z,-3.40
2018-03-18T02:57:15.659Z,-3.45
2018-03-18T02:59:41.722Z,-3.46
2018-03-18T03:02:07.788Z,-3.53
2018-03-18T03:04:33.864Z,-3.50
2018-03-18T03:06:59.921Z,-3.55
2018-03-18T03:09:25.992Z,-3.54
2018-03-18T03:11:52.049Z,-3.53
2018-03-18T03:14:18.117Z,-3.57
2018-03-18T03:16:44.138Z,-3.55
2018-03-18T03:19:10.196Z,-3.68
2018-03-18T03:21:36.220Z,-3.70
2018-03-18T03:24:02.290Z,-3.72
2018-03-18T03:26:28.336Z,-3.73
2018-03-18T03:28:54.563Z,-3.65
2018-03-18T03:31:20.606Z,-3.75
2018-03-18T03:33:46.627Z,-3.80
2018-03-18T03:36:12.860Z,-3.79
2018-03-18T03:38:38.920Z,-3.82
2018-03-18T03:41:04.966Z,-3.87
2018-03-18T03:43:31.008Z,-3.82
2018-03-18T03:45:57.112Z,-3.82
2018-03-18T03:48:23.125Z,-3.85
2018-03-18T03:50:49.155Z,-3.95
2018-03-18T03:53:15.251Z,-3.92
2018-03-18T03:55:41.259Z,-3.92
2018-03-18T03:58:08.081Z,-3.95
2018-03-18T04:00:34.139Z,-4.00
2018-03-18T04:03:00.518Z,-3.91
2018-03-18T04:05:26.579Z,-3.95
2018-03-18T04:07:52.590Z,-3.98
2018-03-18T04:10:18.674Z,-3.97
2018-03-18T04:12:44.715Z,-3.96
2018-03-18T04:15:10.824Z,-4.02
2018-03-18T04:17:36.856Z,-3.99
2018-03-18T04:20:02.938Z,-4.01
2018-03-18T04:22:29.224Z,-4.04
2018-03-18T04:24:55.317Z,-4.03
2018-03-18T04:27:21.384Z,-4.03
2018-03-18T04:29:47.434Z,-4.11
2018-03-18T04:32:13.504Z,-4.12
2018-03-18T04:34:39.602Z,-4.11
2018-03-18T04:37:05.683Z,-4.14
2018-03-18T04:39:31.842Z,-4.19
2018-03-18T04:41:57.959Z,-4.13
2018-03-18T04:44:24.016Z,-4.16
2018-03-18T04:46:50.099Z,-4.23
2018-03-18T04:49:16.136Z,-4.14
2018-03-18T04:51:42.202Z,-4.16
2018-03-18T04:54:08.605Z,-4.20
2018-03-18T04:56:34.640Z,-4.22
2018-03-18T04:59:00.698Z,-4.23
2018-03-18T05:01:26.819Z,-4.21
2018-03-18T05:03:52.908Z,-4.13
2018-03-18T05:06:18.943Z,-4.24
2018-03-18T05:08:44.983Z,-4.30
2018-03-18T05:11:11.192Z,-4.36
2018-03-18T05:13:37.278Z,-4.27
2018-03-18T05:16:03.315Z,-4.25
2018-03-18T05:18:29.446Z,-4.33
2018-03-18T05:20:55.475Z,-4.32
2018-03-18T05:23:21.496Z,-4.34
2018-03-18T05:25:47.645Z,-4.31
2018-03-18T05:28:13.685Z,-4.16
2018-03-18T05:30:39.779Z,-4.20
2018-03-18T05:33:05.827Z,-4.32
2018-03-18T05:35:31.859Z,-4.31
2018-03-18T05:37:58.000Z,-4.38
2018-03-18T05:40:24.095Z,-4.36
2018-03-18T05:42:50.158Z,-4.36
2018-03-18T05:45:16.211Z,-4.35
2018-03-18T05:47:42.299Z,-4.40
2018-03-18T05:50:08.373Z,-4.33
2018-03-18T05:52:34.534Z,-4.32
2018-03-18T05:55:00.609Z,-4.34
2018-03-18T05:57:26.636Z,-4.34
2018-03-18T05:59:52.913Z,-4.33
2018-03-18T06:02:19.091Z,-4.34
2018-03-18T06:04:45.160Z,-4.34
2018-03-18T06:07:11.208Z,-4.27
2018-03-18T06:09:37.271Z,-4.32
2018-03-18T06:12:03.418Z,-4.23
2018-03-18T06:14:29.456Z,-4.16
2018-03-18T06:16:55.512Z,-4.28
2018-03-18T06:19:21.575Z,-4.28
2018-03-18T06:21:47.650Z,-4.16
2018-03-18T06:24:13.725Z,-4.16
2018-03-18T06:26:39.924Z,-4.15
2018-03-18T06:29:05.990Z,-4.12
2018-03-18T06:31:32.086Z,-4.14
2018-03-18T06:33:58.156Z,-4.11
2018-03-18T06:36:24.169Z,-4.03
2018-03-18T06:38:50.250Z,-3.99
2018-03-18T06:41:16.304Z,-4.01
2018-03-18T06:43:42.413Z,-4.01
2018-03-18T06:46:08.470Z,-3.99
2018-03-18T06:48:34.536Z,-3.91
2018-03-18T06:51:00.735Z,-4.00
2018-03-18T06:53:26.808Z,-3.94
2018-03-18T06:55:52.875Z,-3.93
2018-03-18T06:58:18.931Z,-3.94
2018-03-18T07:00:45.621Z,-3.82
2018-03-18T07:03:11.673Z,-3.74
2018-03-18T07:05:37.772Z,-3.68
2018-03-18T07:08:03.787Z,-3.66
2018-03-18T07:10:29.850Z,-3.64
2018-03-18T07:12:55.884Z,-3.64
2018-03-18T07:15:22.171Z,-3.62
2018-03-18T07:17:48.193Z,-3.66
2018-03-18T07:20:14.202Z,-3.65
2018-03-18T07:22:40.264Z,-3.62
2018-03-18T07:25:06.306Z,-3.59
2018-03-18T07:27:32.384Z,-3.57
2018-03-18T07:29:58.434Z,-3.58
2018-03-18T07:32:24.458Z,-3.58
2018-03-18T07:34:50.527Z,-3.50
2018-03-18T07:37:16.775Z,-3.49
2018-03-18T07:39:42.832Z,-3.38
2018-03-18T07:42:08.956Z,-3.27
2018-03-18T07:44:35.163Z,-3.29
2018-03-18T07:47:01.230Z,-3.43
2018-03-18T07:49:27.290Z,-3.36
2018-03-18T07:51:53.357Z,-3.30
2018-03-18T07:54:19.439Z,-3.13
2018-03-18T07:56:45.527Z,-3.17
2018-03-18T07:59:11.567Z,-3.25
2018-03-18T08:01:37.753Z,-3.15
2018-03-18T08:04:03.824Z,-3.07
2018-03-18T08:06:29.885Z,-3.13
2018-03-18T08:08:55.955Z,-3.23
2018-03-18T08:11:22.011Z,-3.14
2018-03-18T08:13:48.104Z,-3.10
2018-03-18T08:16:14.127Z,-3.05
2018-03-18T08:18:40.163Z,-2.90
2018-03-18T08:21:06.235Z,-2.77
2018-03-18T08:23:32.255Z,-2.76
2018-03-18T08:25:58.380Z,-2.78
2018-03-18T08:28:24.408Z,-2.75
2018-03-18T08:30:50.454Z,-2.73
2018-03-18T08:33:16.486Z,-2.63
2018-03-18T08:35:42.535Z,-2.61
2018-03-18T08:38:08.623Z,-2.58
2018-03-18T08:40:34.760Z,-2.49
2018-03-18T08:43:00.808Z,-2.45
2018-03-18T08:45:26.893Z,-2.36
2018-03-18T08:47:52.952Z,-2.34
2018-03-18T08:50:19.004Z,-2.28
2018-03-18T08:52:45.076Z,-2.30
2018-03-18T08:55:11.116Z,-2.29
2018-03-18T08:57:37.407Z,-2.20
2018-03-18T09:00:03.459Z,-2.18
2018-03-18T09:02:29.563Z,-2.20
2018-03-18T09:04:55.640Z,-2.25
2018-03-18T09:07:21.711Z,-2.14
2018-03-18T09:09:47.956Z,-2.12
2018-03-18T09:12:14.024Z,-2.09
2018-03-18T09:14:40.112Z,-2.04
2018-03-18T09:17:06.188Z,-1.86
2018-03-18T09:19:32.288Z,-1.73
2018-03-18T09:21:58.316Z,-1.75
2018-03-18T09:24:24.476Z,-1.75
2018-03-18T09:26:50.577Z,-1.76
2018-03-18T09:29:17.567Z,-1.74
2018-03-18T09:31:43.630Z,-1.69
2018-03-18T09:34:09.712Z,-1.62
2018-03-18T09:36:35.796Z,-1.50
2018-03-18T09:39:01.824Z,-1.40
2018-03-18T09:41:27.931Z,-1.27
2018-03-18T09:43:53.963Z,-1.15
2018-03-18T09:46:20.026Z,-1.24
2018-03-18T09:48:46.100Z,-1.05
2018-03-18T09:51:12.135Z,-1.18
2018-03-18T09:53:38.185Z,-1.14
2018-03-18T09:56:04.421Z,-1.27
2018-03-18T09:58:30.499Z,-1.17
2018-03-18T10:00:56.555Z,-1.10
2018-03-18T10:03:22.627Z,-1.05
2018-03-18T10:05:48.751Z,-1.02
2018-03-18T10:08:14.859Z,-0.94
2018-03-18T10:10:40.920Z,-0.89
2018-03-18T10:13:06.948Z,-0.87
2018-03-18T10:15:33.157Z,-0.95
2018-03-18T10:17:59.215Z,-0.83
2018-03-18T10:20:25.321Z,-0.81
2018-03-18T10:22:51.395Z,-0.72
2018-03-18T10:25:17.564Z,-0.38
2018-03-18T10:27:43.632Z,-0.40
2018-03-18T10:30:09.918Z,-0.29
2018-03-18T10:32:36.004Z,-0.46
2018-03-18T10:35:02.779Z,-0.59
2018-03-18T10:37:28.853Z,-0.46
2018-03-18T10:39:54.923Z,-0.50
2018-03-18T10:42:20.969Z,-0.46
2018-03-18T10:44:47.142Z,-0.27
2018-03-18T10:47:28.136Z,-0.26
2018-03-18T10:49:54.201Z,-0.23
2018-03-18T10:52:20.250Z,-0.25
2018-03-18T10:54:46.330Z,-0.19
2018-03-18T10:57:12.394Z,-0.19
2018-03-18T10:59:38.459Z,-0.06
2018-03-18T11:02:05.460Z,0.10
2018-03-18T11:04:31.588Z,0.10
2018-03-18T11:06:57.663Z,0.30
2018-03-18T11:09:23.710Z,0.32
2018-03-18T11:11:49.793Z,0.37
2018-03-18T11:14:16.305Z,0.46
2018-03-18T11:16:42.383Z,0.41
2018-03-18T11:19:08.598Z,0.55
2018-03-18T11:21:34.651Z,0.89
2018-03-18T11:24:00.770Z,1.29
2018-03-18T11:26:26.843Z,1.62
2018-03-18T11:28:52.960Z,1.95
2018-03-18T11:31:19.043Z,1.91
2018-03-18T11:33:45.083Z,2.24
2018-03-18T11:36:11.168Z,2.50
2018-03-18T11:38:37.289Z,2.89
2018-03-18T11:41:03.410Z,3.06
2018-03-18T11:43:29.563Z,2.92
2018-03-18T11:45:55.610Z,2.64
2018-03-18T11:48:21.659Z,3.20
2018-03-18T11:50:48.042Z,2.72
2018-03-18T11:53:14.098Z,3.22
2018-03-18T11:55:40.218Z,3.17
2018-03-18T11:58:06.302Z,2.99
2018-03-18T12:00:32.342Z,2.99
2018-03-18T12:02:58.575Z,3.03
2018-03-18T12:05:24.616Z,2.73
2018-03-18T12:07:50.715Z,3.08
2018-03-18T12:10:17.328Z,3.61
2018-03-18T12:12:43.449Z,3.90
2018-03-18T12:15:09.554Z,3.63
2018-03-18T12:17:35.919Z,3.79
2018-03-18T12:20:02.036Z,3.42
2018-03-18T12:22:28.119Z,3.38
2018-03-18T12:24:54.191Z,3.73
2018-03-18T12:27:20.451Z,3.74
2018-03-18T12:29:46.569Z,3.72
2018-03-18T12:32:12.696Z,4.00
2018-03-18T12:34:38.997Z,4.37
2018-03-18T12:37:05.130Z,4.68
2018-03-18T12:39:43.399Z,3.99
2018-03-18T12:42:10.329Z,4.06
2018-03-18T12:44:36.941Z,3.77
2018-03-18T12:47:03.247Z,3.92
2018-03-18T12:49:29.328Z,4.47
2018-03-18T12:51:55.342Z,4.52
2018-03-18T12:54:21.458Z,4.16
2018-03-18T12:56:47.496Z,4.88
2018-03-18T12:59:13.674Z,4.03
2018-03-18T13:01:39.751Z,4.27
2018-03-18T13:04:05.794Z,4.72
2018-03-18T13:06:31.894Z,5.22
2018-03-18T13:08:58.101Z,4.57
2018-03-18T13:11:24.231Z,4.89
2018-03-18T13:13:50.356Z,4.58
2018-03-18T13:16:16.405Z,4.74
2018-03-18T13:18:42.495Z,4.84
2018-03-18T13:21:08.585Z,4.73
2018-03-18T13:23:34.837Z,4.62
2018-03-18T13:26:01.022Z,4.68
2018-03-18T13:28:27.783Z,5.18
2018-03-18T13:30:53.863Z,5.38
2018-03-18T13:33:19.994Z,5.02
2018-03-18T13:35:46.265Z,5.06
2018-03-18T13:38:12.339Z,5.32
2018-03-18T13:40:38.513Z,4.71
2018-03-18T13:43:04.601Z,4.88
2018-03-18T13:45:30.701Z,5.02
2018-03-18T13:47:57.118Z,5.18
2018-03-18T13:50:23.203Z,5.14
2018-03-18T13:52:49.298Z,4.86
2018-03-18T13:55:15.354Z,4.87
2018-03-18T13:57:41.421Z,5.00
2018-03-18T14:00:07.576Z,4.74
2018-03-18T14:02:33.769Z,4.75
2018-03-18T14:04:59.979Z,4.61
2018-03-18T14:07:26.128Z,5.21
2018-03-18T14:09:52.290Z,5.68
2018-03-18T14:12:18.332Z,5.04
2018-03-18T14:14:44.779Z,4.79
2018-03-18T14:17:10.791Z,5.10
2018-03-18T14:19:36.945Z,5.27
2018-03-18T14:22:04.092Z,5.38
2018-03-18T14:24:30.169Z,5.70
2018-03-18T14:26:57.165Z,5.24
2018-03-18T14:29:23.269Z,5.49
2018-03-18T14:31:49.334Z,5.65
2018-03-18T14:34:15.435Z,5.89
2018-03-18T14:36:41.624Z,6.03
2018-03-18T14:39:07.729Z,5.56
2018-03-18T14:41:33.815Z,6.00
2018-03-18T14:43:59.922Z,5.41
2018-03-18T14:46:25.992Z,5.48
2018-03-18T14:48:52.138Z,5.59
2018-03-18T14:51:18.255Z,5.25
2018-03-18T14:53:44.299Z,5.01
2018-03-18T14:56:10.350Z,5.14
2018-03-18T14:58:36.611Z,5.13
2018-03-18T15:01:03.342Z,5.08
2018-03-18T15:03:29.363Z,4.94
2018-03-18T15:05:55.524Z,4.93
2018-03-18T15:08:21.634Z,4.82
2018-03-18T15:10:47.714Z,5.05
2018-03-18T15:13:13.822Z,4.42
2018-03-18T15:15:40.113Z,4.47
2018-03-18T15:18:07.180Z,4.79
2018-03-18T15:20:33.287Z,4.58
2018-03-18T15:22:59.494Z,4.83
2018-03-18T15:25:25.571Z,4.34
2018-03-18T15:27:51.631Z,4.30
2018-03-18T15:30:17.723Z,4.45
2018-03-18T15:32:43.762Z,4.36
2018-03-18T15:35:09.855Z,4.57
2018-03-18T15:37:35.926Z,4.37
2018-03-18T15:40:02.247Z,3.97
2018-03-18T15:42:28.341Z,4.08
2018-03-18T15:44:54.790Z,4.23
2018-03-18T15:47:20.903Z,3.84
2018-03-18T15:49:46.956Z,3.69
2018-03-18T15:52:13.133Z,3.91
2018-03-18T15:54:39.249Z,4.05
2018-03-18T15:57:05.314Z,3.73
2018-03-18T15:59:31.570Z,3.69
2018-03-18T16:01:57.729Z,3.67
2018-03-18T16:04:23.917Z,3.57
2018-03-18T16:06:50.094Z,3.20
2018-03-18T16:09:16.172Z,3.18
2018-03-18T16:11:42.265Z,3.07
2018-03-18T16:14:08.347Z,2.89
2018-03-18T16:16:34.422Z,2.87
2018-03-18T16:19:00.606Z,2.73
2018-03-18T16:21:26.854Z,2.50
2018-03-18T16:23:53.086Z,2.61
2018-03-18T16:26:19.163Z,2.41
2018-03-18T16:28:45.282Z,2.19
2018-03-18T16:31:15.260Z,2.19
2018-03-18T16:33:41.391Z,1.98
2018-03-18T16:36:07.506Z,1.89
2018-03-18T16:38:33.788Z,1.72
2018-03-18T16:40:59.838Z,1.58
2018-03-18T16:43:26.067Z,1.53
2018-03-18T16:45:52.252Z,1.64
2018-03-18T16:48:18.441Z,1.61
2018-03-18T16:50:44.509Z,1.51
2018-03-18T16:53:10.722Z,1.28
2018-03-18T16:55:37.841Z,1.16
2018-03-18T16:58:03.890Z,1.08
2018-03-18T17:00:30.099Z,0.95
2018-03-18T17:02:56.307Z,0.85
2018-03-18T17:05:23.180Z,0.82
2018-03-18T17:07:49.394Z,0.81
2018-03-18T17:10:15.383Z,0.72
2018-03-18T17:12:41.551Z,0.68
2018-03-18T17:15:07.631Z,0.67
2018-03-18T17:17:33.994Z,0.66
2018-03-18T17:20:00.154Z,0.60
2018-03-18T17:22:26.268Z,0.45
2018-03-18T17:24:52.405Z,0.48
2018-03-18T17:27:18.587Z,0.50
2018-03-18T17:29:44.911Z,0.57
2018-03-18T17:32:11.001Z,0.43
2018-03-18T17:34:37.074Z,0.38
2018-03-18T17:37:03.287Z,0.34
2018-03-18T17:39:30.232Z,0.28
2018-03-18T17:41:56.306Z,0.24
2018-03-18T17:47:34.475Z,0.23
2018-03-18T17:50:12.901Z,0.20
2018-03-18T17:52:51.220Z,0.10
2018-03-18T17:55:34.248Z,0.03
2018-03-18T17:58:00.353Z,0.13
2018-03-18T18:00:26.537Z,0.12
2018-03-18T18:02:52.649Z,0.16
2018-03-18T18:05:18.850Z,0.08
2018-03-18T18:07:45.010Z,0.06
2018-03-18T18:10:11.170Z,0.02
2018-03-18T18:12:37.499Z,-0.07
2018-03-18T18:15:03.566Z,-0.01
2018-03-18T18:17:29.794Z,0.04
2018-03-18T18:19:55.864Z,0.01
2018-03-18T18:22:22.166Z,-0.06
2018-03-18T18:24:48.222Z,-0.07
2018-03-18T18:27:14.346Z,-0.15
2018-03-18T18:29:40.465Z,-0.12
2018-03-18T18:32:07.757Z,-0.12
2018-03-18T18:34:34.875Z,-0.16
2018-03-18T18:37:01.018Z,-0.12
2018-03-18T18:39:27.144Z,-0.22
2018-03-18T18:41:53.238Z,-0.20
2018-03-18T18:44:19.989Z,-0.23
2018-03-18T18:46:46.075Z,-0.38
2018-03-18T18:49:12.400Z,-0.36
2018-03-18T18:51:38.511Z,-0.36
2018-03-18T18:54:04.661Z,-0.39
2018-03-18T18:56:30.889Z,-0.35
2018-03-18T18:58:56.967Z,-0.40
2018-03-18T19:01:23.070Z,-0.49
2018-03-18T19:03:49.148Z,-0.45
2018-03-18T19:06:15.250Z,-0.49
2018-03-18T19:08:42.143Z,-0.47
2018-03-18T19:11:08.866Z,-0.51
2018-03-18T19:13:34.985Z,-0.53
2018-03-18T19:16:01.164Z,-0.56
2018-03-18T19:18:28.121Z,-0.60
2018-03-18T19:20:54.469Z,-0.59
2018-03-18T19:23:20.593Z,-0.69
2018-03-18T19:25:47.041Z,-0.68
2018-03-18T19:28:13.192Z,-0.69
2018-03-18T19:30:39.272Z,-0.74
2018-03-18T19:33:05.494Z,-0.80
2018-03-18T19:35:32.155Z,-0.75
2018-03-18T19:37:59.123Z,-0.80
2018-03-18T19:40:25.187Z,-0.85
2018-03-18T19:42:51.288Z,-0.88
2018-03-18T19:45:17.450Z,-0.99
2018-03-18T19:47:44.272Z,-0.96
2018-03-18T19:50:10.329Z,-0.95
2018-03-18T19:52:36.544Z,-0.96
2018-03-18T19:55:02.656Z,-1.00
2018-03-18T19:57:28.994Z,-1.01
2018-03-18T19:59:55.788Z,-1.02
2018-03-18T20:02:21.899Z,-0.99
2018-03-18T20:04:47.932Z,-1.04
2018-03-18T20:07:14.262Z,-1.08
2018-03-18T20:09:40.375Z,-1.10
2018-03-18T20:12:06.620Z,-1.09
2018-03-18T20:14:32.739Z,-1.09
2018-03-18T20:16:58.806Z,-1.10
2018-03-18T20:19:24.937Z,-1.07
2018-03-18T20:21:51.129Z,-1.17
2018-03-18T20:24:17.199Z,-1.16
2018-03-18T20:26:44.027Z,-1.15
2018-03-18T20:29:10.132Z,-1.11
2018-03-18T20:31:36.322Z,-1.18
2018-03-18T20:34:02.350Z,-1.20
2018-03-18T20:36:28.387Z,-1.23
2018-03-18T20:38:54.538Z,-1.28
2018-03-18T20:41:20.724Z,-1.24
2018-03-18T20:43:47.432Z,-1.26
2018-03-18T20:46:13.574Z,-1.24
2018-03-18T20:48:39.728Z,-1.29
2018-03-18T20:51:05.870Z,-1.32
2018-03-18T20:53:32.000Z,-1.31
2018-03-18T20:55:58.106Z,-1.29
2018-03-18T20:58:24.166Z,-1.29
2018-03-18T21:00:51.207Z,-1.33
2018-03-18T21:03:17.278Z,-1.39
2018-03-18T21:05:43.383Z,-1.48
2018-03-18T21:08:09.822Z,-1.44
2018-03-18T21:10:35.924Z,-1.46
2018-03-18T21:13:01.986Z,-1.42
2018-03-18T21:15:28.230Z,-1.45
2018-03-18T21:17:54.239Z,-1.53
2018-03-18T21:20:20.442Z,-1.56
2018-03-18T21:22:46.630Z,-1.57
2018-03-18T21:25:12.659Z,-1.56
2018-03-18T21:27:38.698Z,-1.63
2018-03-18T21:30:04.788Z,-1.62
2018-03-18T21:32:30.919Z,-1.57
2018-03-18T21:34:57.170Z,-1.54
2018-03-18T21:37:23.237Z,-1.53
2018-03-18T21:39:49.366Z,-1.57
2018-03-18T21:42:15.469Z,-1.63
2018-03-18T21:44:41.539Z,-1.68
2018-03-18T21:47:07.725Z,-1.68
2018-03-18T21:49:33.748Z,-1.71
2018-03-18T21:51:59.807Z,-1.77
2018-03-18T21:54:25.862Z,-1.81
2018-03-18T21:56:51.922Z,-1.79
2018-03-18T21:59:18.003Z,-1.74
2018-03-18T22:01:44.078Z,-1.79
2018-03-18T22:04:10.228Z,-1.87
2018-03-18T22:06:36.341Z,-1.90
2018-03-18T22:09:02.444Z,-1.94
2018-03-18T22:11:28.576Z,-1.93
2018-03-18T22:13:54.646Z,-2.03
2018-03-18T22:16:20.722Z,-2.09
2018-03-18T22:18:46.730Z,-2.14
2018-03-18T22:21:12.760Z,-2.15
2018-03-18T22:23:38.987Z,-2.14
2018-03-18T22:26:05.034Z,-2.08
2018-03-18T22:28:31.130Z,-2.16
2018-03-18T22:30:57.191Z,-2.23
2018-03-18T22:33:23.224Z,-2.24
2018-03-18T22:35:49.283Z,-2.25
2018-03-18T22:38:15.385Z,-2.23
2018-03-18T22:40:41.442Z,-2.28
2018-03-18T22:43:07.480Z,-2.28
2018-03-18T22:45:33.756Z,-2.31
2018-03-18T22:47:59.808Z,-2.32
2018-03-18T22:50:25.824Z,-2.38
2018-03-18T22:52:51.917Z,-2.45
2018-03-18T22:55:17.942Z,-2.41
2018-03-18T22:57:44.084Z,-2.40
2018-03-18T23:00:10.158Z,-2.49
2018-03-18T23:02:36.256Z,-2.42
2018-03-18T23:05:02.308Z,-2.49
2018-03-18T23:07:28.378Z,-2.50
2018-03-18T23:09:54.422Z,-2.48
2018-03-18T23:12:20.482Z,-2.52
2018-03-18T23:14:46.550Z,-2.53
2018-03-18T23:17:12.625Z,-2.60
2018-03-18T23:19:38.658Z,-2.48
2018-03-18T23:22:04.682Z,-2.48
2018-03-18T23:24:30.744Z,-2.53
2018-03-18T23:26:56.775Z,-2.60
2018-03-18T23:29:22.790Z,-2.53
2018-03-18T23:31:48.833Z,-2.58
2018-03-18T23:34:14.897Z,-2.57
2018-03-18T23:36:41.003Z,-2.65
2018-03-18T23:39:07.081Z,-2.64
2018-03-18T23:41:33.234Z,-2.71
2018-03-18T23:43:59.270Z,-2.68
2018-03-18T23:46:25.310Z,-2.67
2018-03-18T23:48:51.468Z,-2.69
2018-03-18T23:51:17.543Z,-2.67
2018-03-18T23:53:43.603Z,-2.67
2018-03-18T23:56:09.702Z,-2.68
2018-03-18T23:58:35.790Z,-2.81
